createdAt,value
2023-04-10T00:02:27.892Z,12.37
2023-04-10T00:04:56.120Z,10.97
2023-04-10T00:07:24.237Z,13.50
2023-04-10T00:09:53.703Z,12.33
2023-04-10T00:12:21.837Z,11.37
2023-04-10T00:14:50.138Z,8.90
2023-04-10T00:17:18.130Z,12.40
2023-04-10T00:19:46.166Z,14.30
2023-04-10T00:22:14.049Z,11.13
2023-04-10T00:24:42.292Z,14.03
2023-04-10T00:27:11.618Z,13.10
2023-04-10T00:29:39.456Z,12.27
2023-04-10T00:32:07.724Z,15.20
2023-04-10T00:34:35.950Z,15.57
2023-04-10T00:37:03.920Z,11.75
2023-04-10T00:39:32.100Z,12.73
2023-04-10T00:42:01.529Z,12.05
2023-04-10T00:44:30.857Z,12.48
2023-04-10T00:46:59.068Z,14.33
2023-04-10T00:49:26.989Z,13.50
2023-04-10T00:51:57.942Z,10.20
2023-04-10T00:54:27.492Z,10.93
2023-04-10T00:56:56.706Z,12.10
2023-04-10T00:59:24.807Z,10.03
2023-04-10T01:01:54.263Z,10.37
2023-04-10T01:04:23.065Z,13.23
2023-04-10T01:06:59.570Z,9.73
2023-04-10T01:09:39.612Z,13.97
2023-04-10T01:12:18.030Z,11.23
2023-04-10T01:14:54.654Z,8.93
2023-04-10T01:17:32.621Z,7.70
2023-04-10T01:20:06.247Z,10.00
2023-04-10T01:22:41.146Z,8.77
2023-04-10T01:25:25.702Z,12.27
2023-04-10T01:28:08.326Z,8.73
2023-04-10T01:30:38.921Z,9.63
2023-04-10T01:33:09.896Z,7.97
2023-04-10T01:35:39.404Z,10.43
2023-04-10T01:38:08.628Z,10.07
2023-04-10T01:40:39.480Z,8.37
2023-04-10T01:43:11.281Z,13.63
2023-04-10T01:45:43.576Z,12.23
2023-04-10T01:48:11.765Z,11.63
2023-04-10T01:50:40.868Z,9.70
2023-04-10T01:53:09.110Z,9.10
2023-04-10T01:55:39.394Z,13.07
2023-04-10T01:58:07.638Z,11.77
2023-04-10T02:00:41.834Z,10.30
2023-04-10T02:03:10.751Z,9.00
2023-04-10T02:05:47.327Z,7.60
2023-04-10T02:08:21.681Z,10.40
2023-04-10T02:10:55.380Z,11.50
2023-04-10T02:13:26.768Z,10.00
2023-04-10T02:15:58.932Z,13.60
2023-04-10T02:18:28.027Z,11.90
2023-04-10T02:20:56.597Z,8.27
2023-04-10T02:23:25.093Z,10.77
2023-04-10T02:25:53.447Z,8.73
2023-04-10T02:28:21.585Z,7.57
2023-04-10T02:30:50.447Z,9.27
2023-04-10T02:33:19.870Z,7.87
2023-04-10T02:35:47.783Z,8.27
2023-04-10T02:38:17.367Z,10.10
2023-04-10T02:40:46.110Z,7.47
2023-04-10T02:43:14.212Z,9.30
2023-04-10T02:45:42.692Z,8.00
2023-04-10T02:48:10.992Z,10.80
2023-04-10T02:50:41.197Z,6.93
2023-04-10T02:53:09.126Z,8.57
2023-04-10T02:55:37.188Z,10.17
2023-04-10T02:58:05.056Z,9.00
2023-04-10T03:00:33.450Z,11.07
2023-04-10T03:03:01.741Z,9.67
2023-04-10T03:05:30.084Z,9.33
2023-04-10T03:07:59.439Z,10.10
2023-04-10T03:10:27.365Z,9.30
2023-04-10T03:12:55.399Z,9.80
2023-04-10T03:15:23.324Z,6.77
2023-04-10T03:17:52.008Z,8.50
2023-04-10T03:20:19.988Z,7.77
2023-04-10T03:22:48.229Z,10.80
2023-04-10T03:25:17.720Z,8.07
2023-04-10T03:27:45.813Z,7.77
2023-04-10T03:30:14.314Z,8.30
2023-04-10T03:32:43.194Z,8.57
2023-04-10T03:35:11.923Z,7.87
2023-04-10T03:37:39.842Z,10.30
2023-04-10T03:40:09.902Z,7.90
2023-04-10T03:42:39.408Z,8.13
2023-04-10T03:45:08.388Z,11.03
2023-04-10T03:47:36.512Z,8.17
2023-04-10T03:50:04.741Z,10.17
2023-04-10T03:52:32.796Z,8.37
2023-04-10T03:55:00.731Z,8.60
2023-04-10T03:57:28.792Z,7.97
2023-04-10T03:59:58.276Z,8.50
2023-04-10T04:02:26.403Z,9.20
2023-04-10T04:04:54.676Z,9.20
2023-04-10T04:07:22.619Z,10.10
2023-04-10T04:09:51.254Z,8.63
2023-04-10T04:12:19.354Z,9.13
2023-04-10T04:14:47.339Z,8.33
2023-04-10T04:17:16.758Z,9.30
2023-04-10T04:19:45.033Z,10.10
2023-04-10T04:22:13.453Z,10.33
2023-04-10T04:24:41.487Z,9.93
2023-04-10T04:27:09.500Z,11.33
2023-04-10T04:29:37.504Z,11.60
2023-04-10T04:32:05.869Z,11.27
2023-04-10T04:34:35.254Z,8.83
2023-04-10T04:37:03.340Z,11.33
2023-04-10T04:39:31.259Z,10.80
2023-04-10T04:41:59.478Z,8.87
2023-04-10T04:44:27.462Z,10.20
2023-04-10T04:46:55.454Z,12.17
2023-04-10T04:49:23.496Z,10.23
2023-04-10T04:51:52.791Z,9.47
2023-04-10T04:54:20.838Z,9.83
2023-04-10T04:56:48.880Z,14.40
2023-04-10T04:59:16.936Z,9.97
2023-04-10T05:01:45.050Z,12.30
2023-04-10T05:04:13.291Z,13.70
2023-04-10T05:06:41.472Z,10.03
2023-04-10T05:09:11.105Z,10.17
2023-04-10T05:11:38.983Z,9.50
2023-04-10T05:14:07.493Z,11.20
2023-04-10T05:16:35.359Z,10.10
2023-04-10T05:19:03.284Z,11.47
2023-04-10T05:21:31.396Z,11.60
2023-04-10T05:23:59.353Z,9.70
2023-04-10T05:26:28.820Z,13.83
2023-04-10T05:28:56.846Z,10.07
2023-04-10T05:31:25.751Z,10.10
2023-04-10T05:33:53.660Z,11.83
2023-04-10T05:36:21.841Z,8.67
2023-04-10T05:38:49.900Z,8.47
2023-04-10T05:41:17.861Z,9.57
2023-04-10T05:43:47.499Z,9.90
2023-04-10T05:46:15.661Z,9.07
2023-04-10T05:48:43.653Z,6.87
2023-04-10T05:51:11.634Z,7.93
2023-04-10T05:53:39.814Z,10.53
2023-04-10T05:56:08.687Z,9.50
2023-04-10T05:58:36.613Z,8.77
2023-04-10T06:01:06.844Z,10.80
2023-04-10T06:03:35.059Z,8.73
2023-04-10T06:06:03.435Z,8.30
2023-04-10T06:08:31.480Z,10.07
2023-04-10T06:10:59.499Z,7.20
2023-04-10T06:13:28.050Z,6.63
2023-04-10T06:15:56.253Z,7.90
2023-04-10T06:18:25.527Z,7.73
2023-04-10T06:20:53.576Z,7.90
2023-04-10T06:23:21.633Z,6.77
2023-04-10T06:25:49.585Z,9.20
2023-04-10T06:28:17.677Z,7.17
2023-04-10T06:30:45.839Z,7.43
2023-04-10T06:33:13.979Z,6.00
2023-04-10T06:35:43.271Z,9.43
2023-04-10T06:38:11.178Z,6.20
2023-04-10T06:40:39.640Z,5.83
2023-04-10T06:43:07.573Z,6.20
2023-04-10T06:45:35.449Z,8.63
2023-04-10T06:48:03.719Z,7.97
2023-04-10T06:50:33.456Z,5.97
2023-04-10T06:53:02.873Z,10.07
2023-04-10T06:55:31.394Z,8.30
2023-04-10T06:57:59.303Z,9.40
2023-04-10T07:00:28.165Z,7.63
2023-04-10T07:02:56.364Z,7.40
2023-04-10T07:05:24.663Z,5.40
2023-04-10T07:07:53.399Z,4.80
2023-04-10T07:10:22.715Z,7.70
2023-04-10T07:12:50.715Z,8.23
2023-04-10T07:15:19.023Z,10.27
2023-04-10T07:17:48.763Z,8.07
2023-04-10T07:20:16.894Z,6.93
2023-04-10T07:22:44.810Z,7.20
2023-04-10T07:25:14.333Z,6.53
2023-04-10T07:27:43.644Z,6.50
2023-04-10T07:30:13.672Z,8.13
2023-04-10T07:32:42.535Z,7.73
2023-04-10T07:35:11.095Z,6.37
2023-04-10T07:37:39.882Z,7.17
2023-04-10T07:40:09.267Z,7.33
2023-04-10T07:42:37.385Z,7.27
2023-04-10T07:45:08.233Z,9.57
2023-04-10T07:47:36.175Z,6.70
2023-04-10T07:50:04.388Z,7.47
2023-04-10T07:52:32.719Z,6.90
2023-04-10T07:55:03.093Z,5.73
2023-04-10T07:57:32.325Z,7.30
2023-04-10T08:00:00.738Z,7.63
2023-04-10T08:02:32.211Z,6.97
2023-04-10T08:05:00.529Z,7.57
2023-04-10T08:07:28.534Z,5.90
2023-04-10T08:09:56.582Z,5.63
2023-04-10T08:12:24.617Z,4.83
2023-04-10T08:14:52.584Z,5.30
2023-04-10T08:17:20.618Z,9.87
2023-04-10T08:19:49.995Z,8.77
2023-04-10T08:22:18.063Z,5.07
2023-04-10T08:24:46.148Z,6.50
2023-04-10T08:27:16.042Z,5.70
2023-04-10T08:29:44.474Z,3.90
2023-04-10T08:32:12.362Z,6.00
2023-04-10T08:34:40.680Z,7.20
2023-04-10T08:37:12.200Z,3.50
2023-04-10T08:39:40.364Z,5.30
2023-04-10T08:42:08.590Z,5.93
2023-04-10T08:44:37.484Z,6.17
2023-04-10T08:47:06.413Z,6.07
2023-04-10T08:49:42.547Z,5.80
2023-04-10T08:52:16.022Z,5.53
2023-04-10T08:54:48.827Z,6.07
2023-04-10T08:57:20.869Z,5.40
2023-04-10T08:59:49.418Z,6.03
2023-04-10T09:02:17.624Z,7.77
2023-04-10T09:04:50.276Z,5.93
2023-04-10T09:07:19.807Z,5.40
2023-04-10T09:09:47.867Z,6.30
2023-04-10T09:12:16.433Z,6.07
2023-04-10T09:14:44.648Z,5.00
2023-04-10T09:17:20.076Z,4.73
2023-04-10T09:19:49.658Z,6.10
2023-04-10T09:22:19.647Z,3.23
2023-04-10T09:24:48.739Z,5.60
2023-04-10T09:27:31.502Z,4.80
2023-04-10T09:30:00.204Z,5.10
2023-04-10T09:32:46.534Z,7.97
2023-04-10T09:35:19.852Z,4.60
2023-04-10T09:37:51.514Z,6.53
2023-04-10T09:40:24.796Z,3.93
2023-04-10T09:42:53.390Z,3.90
2023-04-10T09:45:22.847Z,4.20
2023-04-10T09:48:05.185Z,3.60
2023-04-10T09:50:40.243Z,4.60
2023-04-10T09:53:10.321Z,3.70
2023-04-10T09:55:38.678Z,4.23
2023-04-10T09:58:07.713Z,3.70
2023-04-10T10:00:43.248Z,2.83
2023-04-10T10:03:13.243Z,4.73
2023-04-10T10:05:43.623Z,4.03
2023-04-10T10:08:14.640Z,5.47
2023-04-10T10:10:48.091Z,3.27
2023-04-10T10:13:21.502Z,3.87
2023-04-10T10:16:02.256Z,3.30
2023-04-10T10:18:40.182Z,3.30
2023-04-10T10:21:10.153Z,6.00
2023-04-10T10:23:39.902Z,3.80
2023-04-10T10:26:08.882Z,4.10
2023-04-10T10:28:37.753Z,3.00
2023-04-10T10:31:06.662Z,3.33
2023-04-10T10:33:37.207Z,4.30
2023-04-10T10:36:06.768Z,4.80
2023-04-10T10:38:36.035Z,4.77
2023-04-10T10:41:14.124Z,5.03
2023-04-10T10:43:53.434Z,3.55
2023-04-10T10:46:33.850Z,4.00
2023-04-10T10:49:02.252Z,4.27
2023-04-10T10:51:48.154Z,3.63
2023-04-10T10:54:35.470Z,4.90
2023-04-10T10:57:09.334Z,2.87
2023-04-10T10:59:57.265Z,3.30
2023-04-10T11:02:25.689Z,3.50
2023-04-10T11:04:53.831Z,5.00
2023-04-10T11:07:21.817Z,3.57
2023-04-10T11:09:52.181Z,2.90
2023-04-10T11:12:23.645Z,4.53
2023-04-10T11:15:00.335Z,3.80
2023-04-10T11:17:51.518Z,5.30
2023-04-10T11:20:22.307Z,5.43
2023-04-10T11:23:10.557Z,1.93
2023-04-10T11:25:49.297Z,3.70
2023-04-10T11:28:38.445Z,4.90
2023-04-10T11:31:22.117Z,4.07
2023-04-10T11:33:51.979Z,4.30
2023-04-10T11:36:21.465Z,4.60
2023-04-10T11:39:00.143Z,5.00
2023-04-10T11:41:30.502Z,4.57
2023-04-10T11:44:00.701Z,5.10
2023-04-10T11:46:29.154Z,4.87
2023-04-10T11:48:59.412Z,3.13
2023-04-10T11:51:28.658Z,4.20
2023-04-10T11:54:07.280Z,6.43
2023-04-10T11:56:35.620Z,4.17
2023-04-10T11:59:07.976Z,3.60
2023-04-10T12:01:36.516Z,3.73
2023-04-10T12:04:05.203Z,4.67
2023-04-10T12:06:33.363Z,4.30
2023-04-10T12:09:01.514Z,4.00
2023-04-10T12:11:29.697Z,3.53
2023-04-10T12:13:58.905Z,5.40
2023-04-10T12:16:29.241Z,3.90
2023-04-10T12:18:57.632Z,3.10
2023-04-10T12:21:26.247Z,5.00
2023-04-10T12:23:54.187Z,3.73
2023-04-10T12:26:22.547Z,4.77
2023-04-10T12:28:55.111Z,4.43
2023-04-10T12:31:32.083Z,2.63
2023-04-10T12:34:01.337Z,4.53
2023-04-10T12:36:30.537Z,3.73
2023-04-10T12:38:58.905Z,5.90
2023-04-10T12:41:29.896Z,2.83
2023-04-10T12:44:09.401Z,5.03
2023-04-10T12:46:39.030Z,3.30
2023-04-10T12:49:11.471Z,4.80
2023-04-10T12:51:47.085Z,2.97
2023-04-10T12:54:29.066Z,2.90
2023-04-10T12:56:57.647Z,4.73
2023-04-10T12:59:26.430Z,3.93
2023-04-10T13:01:56.310Z,4.87
2023-04-10T13:04:24.842Z,4.47
2023-04-10T13:06:53.586Z,3.53
2023-04-10T13:09:21.897Z,4.43
2023-04-10T13:11:51.685Z,4.20
2023-04-10T13:14:20.128Z,2.60
2023-04-10T13:16:48.257Z,4.33
2023-04-10T13:19:18.115Z,3.90
2023-04-10T13:21:46.092Z,3.80
2023-04-10T13:24:16.497Z,3.83
2023-04-10T13:26:44.898Z,3.63
2023-04-10T13:29:12.881Z,4.40
2023-04-10T13:31:41.225Z,3.27
2023-04-10T13:34:09.155Z,3.40
2023-04-10T13:36:38.730Z,2.23
2023-04-10T13:39:06.822Z,3.27
2023-04-10T13:41:35.121Z,4.90
2023-04-10T13:44:03.014Z,3.33
2023-04-10T13:46:31.059Z,4.70
2023-04-10T13:48:59.532Z,3.70
2023-04-10T13:51:27.862Z,4.13
2023-04-10T13:53:57.325Z,3.27
2023-04-10T13:56:25.401Z,3.77
2023-04-10T13:58:53.466Z,4.63
2023-04-10T14:01:21.852Z,4.03
2023-04-10T14:03:50.368Z,2.57
2023-04-10T14:06:18.528Z,3.07
2023-04-10T14:08:46.749Z,4.17
2023-04-10T14:11:17.065Z,4.90
2023-04-10T14:13:44.949Z,3.07
2023-04-10T14:16:13.135Z,2.70
2023-04-10T14:18:41.131Z,3.43
2023-04-10T14:21:09.404Z,1.87
2023-04-10T14:23:37.605Z,4.23
2023-04-10T14:26:06.736Z,3.63
2023-04-10T14:28:36.319Z,3.97
2023-04-10T14:31:06.226Z,3.07
2023-04-10T14:33:34.999Z,2.93
2023-04-10T14:36:03.349Z,2.63
2023-04-10T14:38:31.443Z,6.00
2023-04-10T14:40:59.346Z,2.73
2023-04-10T14:43:27.408Z,3.23
2023-04-10T14:45:56.790Z,3.47
2023-04-10T14:48:24.792Z,3.40
2023-04-10T14:50:52.952Z,3.60
2023-04-10T14:53:21.613Z,3.60
2023-04-10T14:55:49.833Z,2.73
2023-04-10T14:58:17.690Z,2.50
2023-04-10T15:00:45.789Z,4.47
2023-04-10T15:03:15.219Z,3.37
2023-04-10T15:05:43.209Z,4.60
2023-04-10T15:08:11.533Z,4.07
2023-04-10T15:10:42.453Z,4.20
2023-04-10T15:13:10.520Z,4.70
2023-04-10T15:15:38.612Z,4.77
2023-04-10T15:18:06.732Z,3.40
2023-04-10T15:20:36.176Z,3.00
2023-04-10T15:23:04.089Z,2.47
2023-04-10T15:25:34.165Z,3.63
2023-04-10T15:28:02.537Z,2.87
2023-04-10T15:30:31.237Z,3.97
2023-04-10T15:32:59.203Z,4.00
2023-04-10T15:35:28.777Z,4.63
2023-04-10T15:37:58.434Z,3.03
2023-04-10T15:40:26.359Z,2.23
2023-04-10T15:42:54.776Z,2.23
2023-04-10T15:45:22.919Z,4.30
2023-04-10T15:47:50.884Z,2.30
2023-04-10T15:50:18.972Z,4.67
2023-04-10T15:52:47.038Z,4.03
2023-04-10T15:55:17.145Z,4.27
2023-04-10T15:57:45.206Z,2.30
2023-04-10T16:00:14.558Z,2.90
2023-04-10T16:02:42.645Z,2.27
2023-04-10T16:05:11.101Z,3.40
2023-04-10T16:07:40.649Z,3.07
2023-04-10T16:10:10.476Z,3.80
2023-04-10T16:12:39.796Z,3.13
2023-04-10T16:15:09.197Z,2.90
2023-04-10T16:17:37.229Z,5.27
2023-04-10T16:20:07.488Z,2.63
2023-04-10T16:22:36.393Z,4.77
2023-04-10T16:27:39.198Z,3.17
2023-04-10T16:30:08.553Z,4.23
2023-04-10T16:32:36.645Z,3.63
2023-04-10T16:35:05.203Z,2.80
2023-04-10T16:37:33.249Z,2.67
2023-04-10T16:40:02.066Z,3.27
2023-04-10T16:42:30.157Z,2.60
2023-04-10T16:45:02.016Z,3.20
2023-04-10T16:47:30.134Z,2.80
2023-04-10T16:49:58.361Z,4.37
2023-04-10T16:52:26.391Z,4.60
2023-04-10T16:54:54.462Z,3.80
2023-04-10T16:57:22.608Z,4.07
2023-04-10T16:59:50.674Z,2.90
2023-04-10T17:02:20.072Z,4.03
2023-04-10T17:04:48.031Z,3.50
2023-04-10T17:07:16.086Z,2.43
2023-04-10T17:09:44.003Z,4.60
2023-04-10T17:12:12.294Z,4.00
2023-04-10T17:14:40.239Z,4.40
2023-04-10T17:17:08.487Z,2.93
2023-04-10T17:19:38.483Z,3.30
2023-04-10T17:22:15.439Z,3.93
2023-04-10T17:24:44.633Z,3.90
2023-04-10T17:27:13.021Z,3.20
2023-04-10T17:29:41.225Z,4.23
2023-04-10T17:32:10.154Z,3.05
2023-04-10T17:34:39.778Z,4.33
2023-04-10T17:37:07.816Z,4.20
2023-04-10T17:39:36.069Z,3.33
2023-04-10T17:42:04.065Z,2.80
2023-04-10T17:44:32.186Z,3.60
2023-04-10T17:47:01.500Z,3.50
2023-04-10T17:49:29.364Z,4.43
2023-04-10T17:51:58.784Z,3.60
2023-04-10T17:54:26.866Z,3.40
2023-04-10T17:56:54.811Z,3.00
2023-04-10T17:59:22.722Z,5.63
2023-04-10T18:01:50.868Z,3.23
2023-04-10T18:04:18.874Z,4.70
2023-04-10T18:06:47.212Z,2.80
2023-04-10T18:09:16.946Z,4.57
2023-04-10T18:11:44.887Z,6.60
2023-04-10T18:14:12.970Z,3.20
2023-04-10T18:16:40.877Z,3.17
2023-04-10T18:19:10.112Z,4.00
2023-04-10T18:21:38.265Z,3.40
2023-04-10T18:24:06.773Z,3.90
2023-04-10T18:26:36.251Z,4.97
2023-04-10T18:29:04.387Z,4.30
2023-04-10T18:31:32.300Z,5.43
2023-04-10T18:34:07.901Z,3.73
2023-04-10T18:36:36.888Z,6.57
2023-04-10T18:39:06.666Z,4.27
2023-04-10T18:41:35.948Z,4.70
2023-04-10T18:44:05.532Z,5.30
2023-04-10T18:46:34.053Z,5.47
2023-04-10T18:49:03.481Z,3.60
2023-04-10T18:51:34.930Z,4.83
2023-04-10T18:54:03.368Z,6.00
2023-04-10T18:56:31.447Z,4.55
2023-04-10T18:59:00.778Z,5.40
2023-04-10T19:01:29.075Z,6.03
2023-04-10T19:03:57.689Z,3.90
2023-04-10T19:06:26.988Z,3.85
2023-04-10T19:08:55.886Z,4.53
2023-04-10T19:11:24.100Z,5.80
2023-04-10T19:13:52.012Z,5.07
2023-04-10T19:16:21.493Z,5.15
2023-04-10T19:18:49.959Z,4.23
2023-04-10T19:21:18.180Z,4.45
2023-04-10T19:23:46.386Z,5.82
2023-04-10T19:26:14.295Z,4.73
2023-04-10T19:28:42.366Z,5.60
2023-04-10T19:31:10.381Z,5.20
2023-04-10T19:33:39.756Z,5.23
2023-04-10T19:36:08.846Z,6.00
2023-04-10T19:38:36.812Z,5.93
2023-04-10T19:41:13.684Z,5.73
2023-04-10T19:43:41.708Z,4.20
2023-04-10T19:46:18.063Z,5.73
2023-04-10T19:48:47.583Z,6.83
2023-04-10T19:51:15.916Z,5.57
2023-04-10T19:53:43.819Z,5.93
2023-04-10T19:56:12.310Z,4.90
2023-04-10T19:58:41.640Z,5.88
2023-04-10T20:01:11.810Z,5.70
2023-04-10T20:03:40.504Z,4.30
2023-04-10T20:06:10.314Z,5.63
2023-04-10T20:08:38.499Z,5.63
2023-04-10T20:11:07.138Z,6.80
2023-04-10T20:13:35.691Z,5.20
2023-04-10T20:16:04.056Z,6.30
2023-04-10T20:18:32.830Z,5.03
2023-04-10T20:21:00.763Z,4.23
2023-04-10T20:23:30.288Z,5.73
2023-04-10T20:25:58.332Z,6.70
2023-04-10T20:28:26.387Z,7.97
2023-04-10T20:30:54.265Z,6.07
2023-04-10T20:33:22.311Z,6.27
2023-04-10T20:35:50.411Z,6.20
2023-04-10T20:38:19.757Z,7.00
2023-04-10T20:40:49.120Z,3.87
2023-04-10T20:43:18.807Z,7.03
2023-04-10T20:45:46.744Z,4.73
2023-04-10T20:48:14.707Z,6.13
2023-04-10T20:50:44.628Z,5.35
2023-04-10T20:53:12.952Z,5.80
2023-04-10T20:55:41.180Z,5.83
2023-04-10T20:58:10.899Z,7.37
2023-04-10T21:00:39.726Z,7.17
2023-04-10T21:03:08.299Z,5.37
2023-04-10T21:05:40.843Z,6.00
2023-04-10T21:08:09.039Z,3.83
2023-04-10T21:10:43.716Z,5.80
2023-04-10T21:13:13.534Z,6.37
2023-04-10T21:15:41.646Z,5.60
2023-04-10T21:18:10.477Z,6.10
2023-04-10T21:20:38.391Z,5.30
2023-04-10T21:23:06.526Z,6.90
2023-04-10T21:25:36.101Z,4.83
2023-04-10T21:28:04.179Z,6.27
2023-04-10T21:30:33.445Z,7.27
2023-04-10T21:33:01.575Z,6.47
2023-04-10T21:35:29.575Z,6.07
2023-04-10T21:38:01.851Z,3.97
2023-04-10T21:40:34.169Z,6.10
2023-04-10T21:43:02.516Z,5.40
2023-04-10T21:45:30.478Z,7.20
2023-04-10T21:48:00.815Z,5.57
2023-04-10T21:50:28.757Z,6.25
2023-04-10T21:52:56.784Z,6.27
2023-04-10T21:55:24.978Z,6.53
2023-04-10T21:57:52.876Z,5.78
2023-04-10T22:00:22.873Z,6.87
2023-04-10T22:02:52.036Z,5.50
2023-04-10T22:05:22.522Z,10.93
2023-04-10T22:07:50.649Z,7.23
2023-04-10T22:10:19.004Z,8.25
2023-04-10T22:12:48.447Z,5.10
2023-04-10T22:15:16.973Z,6.20
2023-04-10T22:17:45.179Z,6.32
2023-04-10T22:20:13.815Z,6.68
2023-04-10T22:22:43.207Z,4.83
2023-04-10T22:25:11.287Z,5.63
2023-04-10T22:27:39.191Z,5.60
2023-04-10T22:30:09.898Z,6.13
2023-04-10T22:32:38.350Z,6.13
2023-04-10T22:35:07.757Z,5.37
2023-04-10T22:37:35.939Z,5.33
2023-04-10T22:40:06.775Z,4.30
2023-04-10T22:42:34.877Z,4.13
2023-04-10T22:45:03.031Z,6.13
2023-04-10T22:47:31.028Z,5.43
2023-04-10T22:49:58.928Z,4.78
2023-04-10T22:52:26.988Z,5.70
2023-04-10T22:54:54.906Z,3.67
2023-04-10T22:57:31.244Z,5.53
2023-04-10T23:00:00.574Z,4.33
2023-04-10T23:02:29.060Z,3.70
2023-04-10T23:04:57.813Z,3.70
2023-04-10T23:07:27.918Z,4.45
2023-04-10T23:09:55.904Z,4.60
2023-04-10T23:12:26.284Z,3.43
2023-04-10T23:14:54.336Z,5.60
2023-04-10T23:17:22.214Z,4.50
2023-04-10T23:19:50.335Z,5.20
2023-04-10T23:22:18.632Z,3.10
2023-04-10T23:24:46.702Z,3.77
2023-04-10T23:27:14.619Z,3.57
2023-04-10T23:29:44.020Z,2.83
2023-04-10T23:32:11.997Z,3.33
2023-04-10T23:34:40.224Z,3.83
2023-04-10T23:37:08.256Z,4.20
2023-04-10T23:39:36.150Z,2.83
2023-04-10T23:42:04.263Z,4.50
2023-04-10T23:44:32.195Z,2.70
2023-04-10T23:47:01.551Z,3.03
2023-04-10T23:49:30.112Z,3.40
2023-04-10T23:51:58.027Z,3.13
2023-04-10T23:54:26.107Z,3.30
2023-04-10T23:56:53.961Z,5.37
2023-04-10T23:59:22.367Z,4.68
